Tiempo atmosférico en la estación meteorológica de Fuentesauco, Zamora (811 m.)

Fecha
DESCASC
Temp. máxima en grados centígrados (hora)
DESCASC
Temp. mínima en grados centígrados (hora)
DESCASC
Temp. media en grados centígrados
DESCASC
Racha de viento máxima en m/sg (hora)
DESCASC
Velocidad máxima media en intervalos de 10 minutos(hora)
DESCASC
Precipitaciones diarias en mm
DESCASC
Precipitaciones de 00:00 a 06:00 en mm
DESCASC
Precipitaciones de 06:00 a 12:00 en mm
DESCASC
Precipitaciones de 12:00 a 18:00 en mm
DESCASC
Precipitaciones de 18:00 a 24:00 en mm
DESCASC
10-12-2017 10.8 (13:20) 8.3 (09:30) 9.6 29.72 (21:40) 18.61 (23:00) 4 0 0 0.6 3.4
09-12-2017 11.7 (13:40) 8.3 (07:20) 10 12.22 (13:40) 8.89 (19:20) 0.2 0 0 0 0.2
08-12-2017 10.5 (20:40) 4.7 (05:20) 7.6 10.28 (06:00) 7.5 (06:00) 0.2 0.2 0 0 0
07-12-2017 12.1 (15:40) -3.9 (-00:0) 4.1 6.67 (14:10) 5 (13:00) 1.4 0 0.2 0 1.2
06-12-2017 -1.3 (15:10) -7.3 (-00:0) -4.3 1.67 (15:20) 0.56 (15:20) 0.2 0 0 0.2 0
05-12-2017 3.5 (16:40) -6.1 (-00:0) -1.3 4.17 (14:20) 3.33 (00:20) 0 0 0 0 0
04-12-2017 6 (15:40) -4.6 (-00:0) 0.7 6.67 (16:10) 5 (16:10) 0 0 0 0 0
03-12-2017 4.3 (16:20) -4 (-00:0) 0.2 4.44 (11:50) 3.33 (16:20) 0 0 0 0 0
02-12-2017 6.4 (14:20) -4.2 (-00:0) 1.1 8.61 (16:50) 6.11 (16:50) 0 0 0 0 0
01-12-2017 6.4 (14:00) -3.1 (-00:0) 1.7 12.22 (11:20) 8.06 (17:10) 0.2 0 0 0.2 0
30-11-2017 6.4 (16:30) -3.3 (-00:0) 1.6 4.72 (16:00) 2.78 (01:20) 0 0 0 0 0
29-11-2017 6.3 (16:50) -2 (-00:0) 2.2 6.39 (23:00) 4.44 (23:00) 0.2 0 0.2 0 0
28-11-2017 9.6 (13:20) 1 (00:00) 5.3 6.11 (13:00) 3.89 (13:30) 0 0 0 0 0
27-11-2017 6.7 (15:50) -3.7 (-00:0) 1.5 3.06 (11:00) 2.22 (11:00) 0 0 0 0 0
26-11-2017 7.8 (16:10) -1.7 (-00:0) 3.1 9.72 (13:20) 6.94 (13:20) 0 0 0 0 0
25-11-2017 10.7 (00:00) 3 (00:00) 6.8 11.39 (04:10) 8.33 (04:10) 3 2.8 0.2 0 0
24-11-2017 14.7 (15:30) 9.1 (00:00) 11.9 13.61 (03:30) 8.89 (03:30) 3 0.2 0 2.2 0.6
23-11-2017 17 (15:20) 9.3 (00:00) 13.2 15 (23:00) 10.83 (23:30) 0.8 0 0 0 0.8
22-11-2017 18.6 (13:40) 5.4 (00:00) 12 12.78 (18:00) 10 (18:00) 0 0 0 0 0
21-11-2017 17.1 (16:00) -0.3 (00:00) 8.4 5.28 (14:40) 3.61 (17:00) 0 0 0 0 0
20-11-2017 14.8 (16:10) -2.1 (-00:0) 6.4 3.61 (15:50) 2.22 (16:00) 0 0 0 0 0
19-11-2017 12.1 (16:10) -3 (-00:0) 4.6 3.89 (13:00) 2.22 (12:30) 0 0 0 0 0
18-11-2017 14.7 (16:30) 0.4 (00:00) 7.5 6.67 (14:50) 5 (14:50) 0 0 0 0 0
17-11-2017 14.4 (16:50) 0.6 (00:00) 7.5 4.17 (13:50) 2.5 (13:50) 0 0 0 0 0
16-11-2017 13.8 (16:10) -1.3 (-00:0) 6.3 3.61 (14:00) 2.22 (15:20) 0 0 0 0 0
15-11-2017 12.6 (15:50) -1.9 (-00:0) 5.4 3.89 (14:50) 2.78 (00:10) 0 0 0 0 0

Gráficas

Temp. máximas Temp. mínimas Temp. medias Precipitaciones Rachas de viento máximas Velocidades máximas media en intervalos de 10 minutos

Datos horarios

Fecha y hora oficial Temperatura (ºC) Velocidad del viento (km/h) Dirección del viento Racha (km/h) Dirección de racha Precipitación (mm) Presión (hPa) Tendencia (hPa) Humedad (%)
2017-12-14 23:00:00 9 31 Oeste 43 Oeste 0 -- -- 90
2017-12-14 22:00:00 9.6 22 Oeste 53 Oeste 0 -- -- 92
2017-12-14 21:00:00 9.6 26 Oeste 35 Sudoeste 0 -- -- 95
2017-12-14 20:00:00 9.6 25 Oeste 35 Sudoeste 0 -- -- 94
2017-12-14 19:00:00 10.3 24 Sudoeste 39 Oeste 0 -- -- 91
2017-12-14 18:00:00 11 27 Oeste 40 Oeste 0 -- -- 85
2017-12-14 17:00:00 11.8 29 Oeste 42 Oeste 0 -- -- 81
2017-12-14 16:00:00 12.2 27 Oeste 45 Oeste 0 -- -- 83
2017-12-14 15:00:00 12 28 Oeste 51 Oeste 0 -- -- 85
2017-12-14 14:00:00 12.4 32 Oeste 51 Oeste 0 -- -- 85
2017-12-14 13:00:00 11.4 32 Oeste 50 Sudoeste 0 -- -- 90
2017-12-14 12:00:00 10.6 31 Oeste 50 Oeste 0 -- -- 94
2017-12-14 11:00:00 10.6 38 Oeste 53 Oeste 0 -- -- 93
2017-12-14 10:00:00 10.1 33 Oeste 65 Sudoeste 0 -- -- 95
2017-12-14 09:00:00 9.7 32 Oeste 51 Oeste 0 -- -- 97
2017-12-14 08:00:00 9.3 23 Sudoeste 40 Sudoeste 0 -- -- 98
2017-12-14 07:00:00 8.8 18 Sudoeste 37 Sudoeste 0 -- -- 99
2017-12-14 06:00:00 8.3 27 Sudoeste 41 Sudoeste 0 -- -- 98
2017-12-14 05:00:00 8.2 28 Sudoeste 43 Sudoeste 0 -- -- 98
2017-12-14 04:00:00 8.2 29 Sudoeste 45 Sudoeste 0 -- -- 98
2017-12-14 03:00:00 7.9 27 Sudoeste 39 Sudoeste 0 -- -- 98
2017-12-14 02:00:00 7.7 32 Sudoeste 46 Sudoeste 0 -- -- 97
2017-12-14 01:00:00 7.3 27 Sudoeste 39 Sudoeste 0 -- -- 97
2017-12-14 00:00:00 7 25 Sudoeste 38 Sudoeste 0 -- -- 96
2017-12-13 23:00:00 7 21 Sudoeste 37 Sudoeste 0 -- -- 94
2017-12-13 22:00:00 6.9 33 Sudoeste 44 Sudoeste 0 -- -- 92
2017-12-13 21:00:00 6.7 25 Sudoeste 39 Sudoeste 0 -- -- 92
2017-12-13 20:00:00 6.9 28 Sudoeste 40 Sudoeste 0 -- -- 91
2017-12-13 19:00:00 7.5 23 Sudoeste 40 Sudoeste 0 -- -- 90
2017-12-13 18:00:00 8 30 Oeste 44 Oeste 0 -- -- 88
2017-12-13 17:00:00 8.2 31 Oeste 47 Sudoeste 0 -- -- 88
2017-12-13 16:00:00 8.5 27 Oeste 45 Oeste 0 -- -- 88
2017-12-13 15:00:00 8.2 23 Oeste 39 Sudoeste 0 -- -- 92
2017-12-13 14:00:00 8 26 Sudoeste 39 Sudoeste 0 -- -- 92
2017-12-13 13:00:00 7.3 27 Sudoeste 43 Sudoeste 0 -- -- 91
2017-12-13 12:00:00 6.2 21 Sudoeste 29 Sudoeste 0 -- -- 92
2017-12-13 11:00:00 4.4 18 Sudoeste 34 Sudoeste 0 -- -- 92
2017-12-13 10:00:00 3.2 23 Sudoeste 37 Sudoeste 0 -- -- 92
2017-12-13 09:00:00 1.8 13 Sudoeste 25 Sudoeste 0 -- -- 93
2017-12-13 08:00:00 1.5 19 Sudoeste 30 Sudoeste 0 -- -- 93
2017-12-13 07:00:00 1.6 24 Sudoeste 36 Sudoeste 0 -- -- 93
2017-12-13 06:00:00 1.6 12 Sudoeste 24 Sudoeste 0 -- -- 93
2017-12-13 05:00:00 1.5 10 Sudoeste 24 Sudoeste 0 -- -- 92
2017-12-13 04:00:00 1.6 12 Sudoeste 18 Sudoeste 0 -- -- 91
2017-12-13 03:00:00 1.3 10 Sudoeste 21 Sur 0 -- -- 92
2017-12-13 02:00:00 1.2 12 Sudoeste 17 Sudoeste 0 -- -- 93
2017-12-13 01:00:00 0.8 9 Sudoeste 14 Sudoeste 0 -- -- 93
2017-12-13 00:00:00 0.9 9 Sudoeste 15 Sudoeste 0 -- -- 91
2017-12-12 23:00:00 1.4 9 Sudoeste 14 Sudoeste 0 -- -- 92
2017-12-12 22:00:00 1.1 9 Sudoeste 13 Sudoeste 0 -- -- 90
2017-12-12 21:00:00 1.9 10 Sudoeste 15 Sudoeste 0 -- -- 90
2017-12-12 20:00:00 2.1 8 Sudoeste 11 Sudoeste 0 -- -- 87
2017-12-12 19:00:00 2.8 4 Sudoeste 14 Oeste 0 -- -- 83
2017-12-12 18:00:00 4.8 5 Sudoeste 12 Oeste 0 -- -- 77
2017-12-12 17:00:00 5.9 5 Noroeste 12 Noroeste 0 -- -- 72
2017-12-12 16:00:00 5.5 5 Oeste 14 Oeste 0 -- -- 72
2017-12-12 15:00:00 6.6 10 Oeste 19 Oeste 0 -- -- 71
2017-12-12 14:00:00 5.6 13 Oeste 20 Sudoeste 0 -- -- 77
2017-12-12 13:00:00 3.5 15 Sudoeste 20 Sudoeste 0 -- -- 89
2017-12-12 12:00:00 2.1 14 Sudoeste 21 Sudoeste 0 -- -- 91
2017-12-12 11:00:00 1.2 14 Sudoeste 18 Sudoeste 0 -- -- 91
2017-12-12 10:00:00 0 12 Sudoeste 16 Sudoeste 0 -- -- 93
2017-12-12 09:00:00 -1.1 7 Sudoeste 11 Sudoeste 0 -- -- 92
2017-12-12 08:00:00 -1 8 Sudoeste 9 Sudoeste 0 -- -- 92
2017-12-12 07:00:00 -0.8 4 Sudoeste 9 Sudoeste 0 -- -- 89
2017-12-12 06:00:00 -0.8 4 Sudoeste 6 Sudoeste 0 -- -- 90
2017-12-12 05:00:00 -0.8 3 Sudoeste 5 Sur 0 -- -- 89
2017-12-12 04:00:00 -0.2 3 Oeste 18 Noroeste 0 -- -- 87
2017-12-12 03:00:00 0.2 12 Noroeste 19 Noroeste 0 -- -- 83
2017-12-12 02:00:00 0.1 6 Oeste 13 Noroeste 0 -- -- 84
2017-12-12 01:00:00 0.2 4 Oeste 16 Oeste 0 -- -- 83
2017-12-12 00:00:00 0.5 9 Oeste 14 Noroeste 0 -- -- 82
2017-12-11 23:00:00 0.3 5 Noroeste 16 Norte 0 -- -- 83
2017-12-11 22:00:00 0.7 10 Noroeste 20 Noroeste 0 -- -- 82
2017-12-11 21:00:00 1.8 16 Noroeste 27 Noroeste 0 -- -- 76
2017-12-11 20:00:00 3.2 22 Norte 34 Noroeste 0 -- -- 74
2017-12-11 19:00:00 3.7 15 Oeste 26 Oeste 0 -- -- 88
2017-12-11 18:00:00 3.8 19 Oeste 34 Oeste 0 -- -- 87
2017-12-11 17:00:00 4.3 20 Oeste 34 Oeste 0 -- -- 88
2017-12-11 16:00:00 4.8 20 Oeste 35 Oeste 0 -- -- 89
2017-12-11 15:00:00 4.6 27 Oeste 45 Oeste 0 -- -- 87
2017-12-11 14:00:00 5.5 31 Oeste 60 Oeste 0 -- -- 81
2017-12-11 13:00:00 5.2 31 Sudoeste 45 Oeste 0 -- -- 83
2017-12-11 12:00:00 4.6 35 Oeste 50 Sudoeste 0 -- -- 85
2017-12-11 11:00:00 4.1 37 Oeste 48 Oeste 0 -- -- 86
2017-12-11 10:00:00 3.1 30 Oeste 44 Oeste 0 -- -- 89
2017-12-11 09:00:00 3 27 Oeste 39 Oeste 0 -- -- 91
2017-12-11 08:00:00 3.6 26 Oeste 49 Oeste 0.2 -- -- 91
2017-12-11 07:00:00 4.1 27 Oeste 42 Oeste 0.6 -- -- 93
2017-12-11 06:00:00 4.7 28 Sudoeste 42 Sudoeste 0 -- -- 92
2017-12-11 05:00:00 4.8 30 Sudoeste 51 Oeste 0 -- -- 90
2017-12-11 04:00:00 5.1 35 Sudoeste 58 Sudoeste 0.2 -- -- 89
2017-12-11 03:00:00 5.1 36 Sudoeste 71 Sudoeste 2 -- -- 91
2017-12-11 02:00:00 5.2 32 Oeste 49 Oeste 4.4 -- -- 93
2017-12-11 01:00:00 3.6 37 Sudoeste 81 Sudoeste 5.6 -- -- 91
2017-12-11 00:00:00 9.6 60 Sudoeste 91 Sudoeste 1 -- -- 90
2017-12-10 23:00:00 10.2 67 Sudoeste 97 Sudoeste 1.4 -- -- 86
2017-12-10 22:00:00 9.7 48 Sudoeste 107 Sudoeste 1 -- -- 89
2017-12-10 21:00:00 10.2 50 Sudoeste 82 Sudoeste 0 -- -- 84
2017-12-10 20:00:00 9.9 61 Sudoeste 91 Sudoeste 0 -- -- 83
2017-12-10 19:00:00 9.6 55 Sudoeste 87 Sudoeste 0 -- -- 83
2017-12-10 18:00:00 10 54 Sudoeste 75 Sudoeste 0 -- -- 88
2017-12-10 17:00:00 10.2 50 Sudoeste 69 Sudoeste 0.2 -- -- 89
2017-12-10 16:00:00 10 40 Sudoeste 66 Sudoeste 0.4 -- -- 94
2017-12-10 15:00:00 10.6 49 Sudoeste 69 Sudoeste 0 -- -- 89
2017-12-10 14:00:00 10.7 42 Sudoeste 63 Sudoeste 0 -- -- 85
2017-12-10 13:00:00 10.5 46 Sudoeste 71 Sudoeste 0 -- -- 84
2017-12-10 12:00:00 9.9 36 Sudoeste 57 Sudoeste 0 -- -- 84
2017-12-10 11:00:00 9.3 40 Sudoeste 60 Sudoeste 0 -- -- 87
2017-12-10 10:00:00 8.3 37 Sudoeste 55 Sudoeste 0 -- -- 89
2017-12-10 09:00:00 8.6 35 Sudoeste 49 Sudoeste 0 -- -- 91
2017-12-10 08:00:00 8.4 28 Sudoeste 53 Oeste 0 -- -- 91
2017-12-10 07:00:00 9 33 Oeste 52 Oeste 0 -- -- 90
2017-12-10 06:00:00 8.7 32 Sudoeste 46 Sudoeste 0 -- -- 92
2017-12-10 05:00:00 8.7 24 Sudoeste 40 Sudoeste 0 -- -- 93
2017-12-10 04:00:00 8.7 22 Sudoeste 30 Sudoeste 0 -- -- 92
2017-12-10 03:00:00 8.8 21 Sudoeste 27 Sudoeste 0 -- -- 92
2017-12-10 02:00:00 9.3 21 Oeste 35 Sudoeste 0 -- -- 90
2017-12-10 01:00:00 9.4 23 Oeste 36 Sudoeste 0 -- -- 90
2017-12-10 00:00:00 9.6 22 Sudoeste 34 Oeste 0.2 -- -- 92
2017-12-09 23:00:00 9.6 20 Oeste 28 Oeste 0 -- -- 93
2017-12-09 22:00:00 9.8 21 Sudoeste 28 Sudoeste 0 -- -- 90
2017-12-09 21:00:00 9.8 20 Sudoeste 34 Sudoeste 0 -- -- 87
2017-12-09 20:00:00 10 24 Oeste 40 Oeste 0 -- -- 86
2017-12-09 19:00:00 10.7 24 Oeste 36 Oeste 0 -- -- 84
2017-12-09 18:00:00 10.7 23 Oeste 36 Oeste 0 -- -- 85
2017-12-09 17:00:00 10.9 28 Sudoeste 36 Sudoeste 0 -- -- 84
2017-12-09 16:00:00 11.3 26 Oeste 39 Oeste 0 -- -- 84
2017-12-09 15:00:00 11.6 23 Oeste 39 Oeste 0 -- -- 83
2017-12-09 14:00:00 11.7 26 Oeste 44 Oeste 0 -- -- 83
2017-12-09 13:00:00 11.3 21 Oeste 32 Oeste 0 -- -- 85
2017-12-09 12:00:00 10.5 19 Oeste 26 Oeste 0 -- -- 89
2017-12-09 11:00:00 9.8 16 Oeste 23 Oeste 0 -- -- 93
2017-12-09 10:00:00 9.3 12 Oeste 19 Oeste 0 -- -- 94
2017-12-09 09:00:00 8.5 9 Oeste 14 Oeste 0 -- -- 93
2017-12-09 08:00:00 8.3 9 Noroeste 16 Oeste 0 -- -- 92
2017-12-09 07:00:00 8.4 13 Oeste 20 Oeste 0 -- -- 94
2017-12-09 06:00:00 8.5 10 Noroeste 17 Noroeste 0 -- -- 95
2017-12-09 05:00:00 8.7 9 Oeste 15 Noroeste 0 -- -- 96
2017-12-09 04:00:00 8.8 10 Noroeste 15 Noroeste 0 -- -- 96
2017-12-09 03:00:00 9 11 Noroeste 19 Noroeste 0 -- -- 95
2017-12-09 02:00:00 9.1 12 Noroeste 23 Noroeste 0 -- -- 95
2017-12-09 01:00:00 9.1 16 Noroeste 28 Noroeste 0 -- -- 94
2017-12-09 00:00:00 9.4 19 Noroeste 30 Noroeste 0 -- -- 93
2017-12-08 23:00:00 10 18 Noroeste 28 Noroeste 0 -- -- 93
2017-12-08 22:00:00 10.4 15 Noroeste 30 Oeste 0 -- -- 92
2017-12-08 21:00:00 10.5 16 Oeste 29 Oeste 0 -- -- 93
2017-12-08 20:00:00 10.3 15 Oeste 28 Oeste 0 -- -- 95
2017-12-08 19:00:00 10.1 18 Oeste 23 Oeste 0 -- -- 95
2017-12-08 18:00:00 10.1 11 Oeste 18 Oeste 0 -- -- 94
2017-12-08 17:00:00 10.2 14 Oeste 22 Oeste 0 -- -- 94
2017-12-08 16:00:00 10.1 13 Oeste 28 Oeste 0 -- -- 94
2017-12-08 15:00:00 9.9 17 Oeste 28 Oeste 0 -- -- 95
2017-12-08 14:00:00 9.4 19 Sudoeste 28 Sudoeste 0 -- -- 95
2017-12-08 13:00:00 9.1 19 Oeste 33 Oeste 0 -- -- 95
2017-12-08 12:00:00 8.1 21 Oeste 31 Oeste 0 -- -- 95
2017-12-08 11:00:00 7.4 23 Sudoeste 31 Oeste 0 -- -- 96
2017-12-08 10:00:00 5.8 21 Sudoeste 35 Sudoeste 0 -- -- 95
2017-12-08 09:00:00 5.2 18 Sudoeste 25 Sudoeste 0 -- -- 94
2017-12-08 08:00:00 5 14 Sudoeste 27 Sudoeste 0 -- -- 90
2017-12-08 07:00:00 5.2 23 Sudoeste 33 Sudoeste 0 -- -- 88
2017-12-08 06:00:00 4.8 27 Sudoeste 37 Sudoeste 0 -- -- 87
2017-12-08 05:00:00 4.9 20 Sudoeste 28 Sudoeste 0 -- -- 78
2017-12-08 04:00:00 5.4 14 Sudoeste 27 Oeste 0 -- -- 78
2017-12-08 03:00:00 5.3 15 Sudoeste 25 Sudoeste 0 -- -- 82
2017-12-08 02:00:00 5.7 12 Sudoeste 22 Sudoeste 0.2 -- -- 78
2017-12-08 01:00:00 5.7 15 Sudoeste 21 Sudoeste 0 -- -- 79
2017-12-08 00:00:00 5.7 13 Sudoeste 21 Sudoeste 0.4 -- -- 80
2017-12-07 23:00:00 6 8 Sudoeste 16 Sudoeste 0.4 -- -- 75
2017-12-07 22:00:00 6.2 7 Sudoeste 19 Sudoeste 0.4 -- -- 76
2017-12-07 21:00:00 7.9 14 Oeste 21 Oeste 0 -- -- 50
2017-12-07 20:00:00 7.8 8 Sudoeste 17 Oeste 0 -- -- 51
2017-12-07 19:00:00 8 9 Sudoeste 14 Oeste 0 -- -- 48
2017-12-07 18:00:00 9.5 7 Sudoeste 17 Oeste 0 -- -- 45
2017-12-07 17:00:00 11.4 12 Oeste 20 Oeste 0 -- -- 39
2017-12-07 16:00:00 11.7 12 Sudoeste 22 Oeste 0 -- -- 37
2017-12-07 15:00:00 11.7 13 Oeste 24 Sudoeste 0 -- -- 37
2017-12-07 14:00:00 10.9 17 Sudoeste 23 Oeste 0 -- -- 38
2017-12-07 13:00:00 9.3 18 Sudoeste 23 Sudoeste 0 -- -- 50
2017-12-07 12:00:00 6.6 9 Sudoeste 15 Sudoeste 0 -- -- 72
2017-12-07 11:00:00 1 0 Calma 8 Sudeste 0.2 -- -- 99
2017-12-07 10:00:00 -0.8 0 Calma -- -- 0 -- -- 99
2017-12-07 09:00:00 -2.3 0 Calma -- -- 0 -- -- 98
2017-12-07 08:00:00 -2.9 0 Calma -- -- 0 -- -- 98
2017-12-07 07:00:00 -2.6 0 Calma -- -- 0 -- -- 98
2017-12-07 06:00:00 -2.3 0 Calma -- -- 0 -- -- 98
2017-12-07 05:00:00 -2.5 0 Calma -- -- 0 -- -- 98
2017-12-07 04:00:00 -2.9 0 Calma -- -- 0 -- -- 98
2017-12-07 03:00:00 -2.8 0 Calma -- -- 0 -- -- 98
2017-12-07 02:00:00 -3.2 0 Calma -- -- 0 -- -- 98
2017-12-07 01:00:00 -3.2 0 Calma -- -- 0 -- -- 97
2017-12-07 00:00:00 -3.9 0 Calma -- -- 0 -- -- 98
2017-12-06 23:00:00 -4.3 0 Calma -- -- 0 -- -- 97
2017-12-06 22:00:00 -3.5 0 Calma -- -- 0 -- -- 97
2017-12-06 21:00:00 -3.4 0 Calma -- -- 0 -- -- 98
2017-12-06 20:00:00 -3.2 0 Calma -- -- 0 -- -- 98
2017-12-06 19:00:00 -2.8 0 Calma -- -- 0 -- -- 98
2017-12-06 18:00:00 -2.4 0 Calma -- -- 0 -- -- 98
2017-12-06 17:00:00 -1.8 0 Calma -- -- 0 -- -- 98
2017-12-06 16:00:00 -1.6 0 Calma 6 Nordeste 0 -- -- 97
2017-12-06 15:00:00 -1.5 0 Calma -- -- 0 -- -- 98
2017-12-06 14:00:00 -2.3 0 Calma -- -- 0 -- -- 97
2017-12-06 13:00:00 -3 0 Calma -- -- 0.2 -- -- 97
2017-12-06 12:00:00 -4.1 0 Calma -- -- 0 -- -- 96
2017-12-06 11:00:00 -4.8 0 Calma -- -- 0 -- -- 96
2017-12-06 10:00:00 -5.2 0 Calma -- -- 0 -- -- 96
2017-12-06 09:00:00 -5.6 0 Calma 4 Este 0 -- -- 96
2017-12-06 08:00:00 -6 0 Calma -- -- 0 -- -- 95
2017-12-06 07:00:00 -6.7 0 Calma -- -- 0 -- -- 95
2017-12-06 06:00:00 -7.1 0 Calma -- -- 0 -- -- 95
2017-12-06 05:00:00 -7.2 0 Calma -- -- 0 -- -- 95
2017-12-06 04:00:00 -6.9 0 Calma -- -- 0 -- -- 95
2017-12-06 03:00:00 -6.4 0 Calma -- -- 0 -- -- 95
2017-12-06 02:00:00 -6.6 0 Calma -- -- 0 -- -- 95
2017-12-06 01:00:00 -6.4 0 Calma -- -- 0 -- -- 96
2017-12-06 00:00:00 -6.1 0 Calma -- -- 0 -- -- 95
2017-12-05 23:00:00 -5.4 0 Calma 3 Este 0 -- -- 94
2017-12-05 22:00:00 -4.5 0 Calma -- -- 0 -- -- 93
2017-12-05 21:00:00 -2.6 0 Calma 8 Sudeste 0 -- -- 92
2017-12-05 20:00:00 -1.3 5 Sudeste 7 Sur 0 -- -- 92
2017-12-05 19:00:00 -0.2 3 Sudeste 10 Sudeste 0 -- -- 90
2017-12-05 18:00:00 2 4 Sudeste 6 Sudeste 0 -- -- 84
2017-12-05 17:00:00 3.5 3 Sudeste 9 Este 0 -- -- 80
2017-12-05 16:00:00 3.3 6 Sudeste 13 Nordeste 0 -- -- 81
2017-12-05 15:00:00 3.3 8 Nordeste 15 Nordeste 0 -- -- 83
2017-12-05 14:00:00 2.2 8 Nordeste 14 Nordeste 0 -- -- 94
2017-12-05 13:00:00 0.2 0 Calma 3 Norte 0 -- -- 98
2017-12-05 12:00:00 -1.2 0 Calma -- -- 0 -- -- 97
2017-12-05 11:00:00 -1.5 0 Calma -- -- 0 -- -- 97
2017-12-05 10:00:00 -3.4 0 Calma -- -- 0 -- -- 98
2017-12-05 09:00:00 -4.3 0 Calma -- -- 0 -- -- 96
2017-12-05 08:00:00 -5 0 Calma -- -- 0 -- -- 96
2017-12-05 07:00:00 -4.4 0 Calma -- -- 0 -- -- 97
2017-12-05 06:00:00 -4.4 0 Calma -- -- 0 -- -- 96
2017-12-05 05:00:00 -4 0 Calma -- -- 0 -- -- 96
2017-12-05 04:00:00 -2.9 0 Calma -- -- 0 -- -- 95
2017-12-05 03:00:00 -2.9 0 Calma 3 Nordeste 0 -- -- 95
2017-12-05 02:00:00 -2.6 4 Nordeste 8 Nordeste 0 -- -- 94
2017-12-05 01:00:00 -1.9 8 Nordeste 14 Nordeste 0 -- -- 93
2017-12-05 00:00:00 -1.3 4 Nordeste 13 Nordeste 0 -- -- 92
2017-12-04 23:00:00 -0.7 10 Nordeste 13 Este 0 -- -- 92
2017-12-04 22:00:00 -0.4 6 Este 8 Este 0 -- -- 95
2017-12-04 21:00:00 -1.2 0 Calma -- -- 0 -- -- 89
2017-12-04 20:00:00 -0.1 3 Este 6 Este 0 -- -- 86
2017-12-04 19:00:00 1.3 4 Este 8 Nordeste 0 -- -- 84
2017-12-04 18:00:00 3.1 7 Nordeste 17 Este 0 -- -- 75
2017-12-04 17:00:00 5.6 12 Nordeste 24 Este 0 -- -- 69
2017-12-04 16:00:00 5.9 15 Nordeste 21 Nordeste 0 -- -- 68
2017-12-04 15:00:00 5.7 12 Nordeste 21 Nordeste 0 -- -- 69
2017-12-04 14:00:00 4.5 8 Nordeste 16 Nordeste 0 -- -- 75
2017-12-04 13:00:00 3 8 Nordeste 13 Nordeste 0 -- -- 82
2017-12-04 12:00:00 1.2 6 Nordeste 9 Nordeste 0 -- -- 88
2017-12-04 11:00:00 0.1 4 Nordeste 10 Nordeste 0 -- -- 89
2017-12-04 10:00:00 -2 0 Calma -- -- 0 -- -- 96
2017-12-04 09:00:00 -4.1 0 Calma 5 Sudeste 0 -- -- 94
2017-12-04 08:00:00 -4.3 0 Calma 5 Este 0 -- -- 93
2017-12-04 07:00:00 -4.1 0 Calma 4 Sudeste 0 -- -- 94
2017-12-04 06:00:00 -4 0 Calma -- -- 0 -- -- 93
2017-12-04 05:00:00 -3.6 0 Calma -- -- 0 -- -- 93
2017-12-04 04:00:00 -3.2 0 Calma -- -- 0 -- -- 94
2017-12-04 03:00:00 -3.3 0 Calma -- -- 0 -- -- 92
2017-12-04 02:00:00 -2.4 0 Calma -- -- 0 -- -- 91
2017-12-04 01:00:00 -1.8 0 Calma -- -- 0 -- -- 89
2017-12-04 00:00:00 -1.4 0 Calma -- -- 0 -- -- 89
2017-12-03 23:00:00 -1.8 0 Calma -- -- 0 -- -- 88
2017-12-03 22:00:00 -1.7 0 Calma -- -- 0 -- -- 87
2017-12-03 21:00:00 -1.1 0 Calma -- -- 0 -- -- 85
2017-12-03 20:00:00 -0.5 0 Calma 6 Nordeste 0 -- -- 81
2017-12-03 19:00:00 0.2 0 Calma 3 Sudeste 0 -- -- 79
2017-12-03 18:00:00 2.3 0 Calma 10 Este 0 -- -- 73
2017-12-03 17:00:00 4.1 7 Nordeste 16 Nordeste 0 -- -- 68
2017-12-03 16:00:00 3.9 10 Nordeste 14 Nordeste 0 -- -- 68
2017-12-03 15:00:00 3.9 6 Este 12 Este 0 -- -- 67
2017-12-03 14:00:00 3.7 2 Este 15 Este 0 -- -- 69
2017-12-03 13:00:00 3.1 10 Nordeste 16 Este 0 -- -- 71
2017-12-03 12:00:00 2.9 6 Este 16 Sudeste 0 -- -- 70
2017-12-03 11:00:00 2.4 2 Este 6 Este 0 -- -- 77
2017-12-03 10:00:00 -1.1 0 Calma -- -- 0 -- -- 94
2017-12-03 09:00:00 -4 0 Calma -- -- 0 -- -- 92
2017-12-03 08:00:00 -3.4 0 Calma 7 Este 0 -- -- 89
2017-12-03 07:00:00 -1.7 0 Calma -- -- 0 -- -- 89
2017-12-03 06:00:00 -0.9 0 Calma -- -- 0 -- -- 90
2017-12-03 05:00:00 -1.3 0 Calma -- -- 0 -- -- 91
2017-12-03 04:00:00 -1.8 0 Calma -- -- 0 -- -- 90
2017-12-03 03:00:00 -2.4 0 Calma -- -- 0 -- -- 91
2017-12-03 02:00:00 -2.5 0 Calma -- -- 0 -- -- 89
2017-12-03 01:00:00 -2.3 0 Calma -- -- 0 -- -- 88
2017-12-03 00:00:00 -1.9 0 Calma -- -- 0 -- -- 85
2017-12-02 23:00:00 -0.9 0 Calma 8 Norte 0 -- -- 81
2017-12-02 22:00:00 -0.2 5 Norte 14 Nordeste 0 -- -- 79
2017-12-02 21:00:00 1.2 13 Nordeste 20 Nordeste 0 -- -- 73
2017-12-02 20:00:00 0.8 6 Norte 11 Norte 0 -- -- 72
2017-12-02 19:00:00 1.8 6 Norte 16 Norte 0 -- -- 69
2017-12-02 18:00:00 3.5 13 Norte 26 Norte 0 -- -- 62
2017-12-02 17:00:00 5.7 19 Norte 31 Norte 0 -- -- 53
2017-12-02 16:00:00 5.9 14 Nordeste 29 Nordeste 0 -- -- 55
2017-12-02 15:00:00 5.8 16 Norte 28 Norte 0 -- -- 57
2017-12-02 14:00:00 6.2 18 Norte 27 Norte 0 -- -- 55
2017-12-02 13:00:00 4.9 14 Norte 24 Norte 0 -- -- 61
2017-12-02 12:00:00 3.4 12 Norte 21 Norte 0 -- -- 66
2017-12-02 11:00:00 1.8 3 Noroeste 6 Noroeste 0 -- -- 73
2017-12-02 10:00:00 -1.2 2 Sudoeste 10 Sudoeste 0 -- -- 82
2017-12-02 09:00:00 -3.8 8 Sudoeste 10 Sudoeste 0 -- -- 85
2017-12-02 08:00:00 -4 4 Sudoeste 7 Sudoeste 0 -- -- 85
2017-12-02 07:00:00 -3.8 6 Sudoeste 7 Sudoeste 0 -- -- 83
2017-12-02 06:00:00 -3.6 0 Calma -- -- 0 -- -- 81
2017-12-02 05:00:00 -3.1 0 Calma -- -- 0 -- -- 81
2017-12-02 04:00:00 -2.7 0 Calma -- -- 0 -- -- 78
2017-12-02 03:00:00 -3.4 0 Calma -- -- 0 -- -- 85
2017-12-02 02:00:00 -3.2 0 Calma -- -- 0 -- -- 83
2017-12-02 01:00:00 -3 0 Calma -- -- 0 -- -- 83
2017-12-02 00:00:00 -3.1 0 Calma 4 Sudoeste 0 -- -- 85
2017-12-01 23:00:00 -2.6 0 Calma 8 Norte 0 -- -- 83
2017-12-01 22:00:00 -1.8 8 Norte 10 Norte 0 -- -- 79
2017-12-01 21:00:00 -1.3 5 Norte 13 Nordeste 0 -- -- 78
2017-12-01 20:00:00 0.3 10 Nordeste 18 Nordeste 0 -- -- 71
2017-12-01 19:00:00 1.2 8 Norte 24 Norte 0 -- -- 83
2017-12-01 18:00:00 3 18 Norte 39 Nordeste 0 -- -- 66
2017-12-01 17:00:00 5.1 28 Nordeste 37 Norte 0 -- -- 61
2017-12-01 16:00:00 4.4 10 Este 27 Nordeste 0 -- -- 79
2017-12-01 15:00:00 4.6 24 Nordeste 37 Nordeste 0.2 -- -- 81
2017-12-01 14:00:00 6.4 22 Noroeste 35 Oeste 0 -- -- 72
2017-12-01 13:00:00 5.8 26 Noroeste 41 Noroeste 0 -- -- 75
2017-12-01 12:00:00 5.3 28 Oeste 44 Oeste 0 -- -- 77
2017-12-01 11:00:00 3.1 25 Oeste 42 Oeste 0 -- -- 86
2017-12-01 10:00:00 0.4 18 Sudoeste 31 Sudoeste 0 -- -- 88
2017-12-01 09:00:00 -0.8 19 Oeste 28 Sudoeste 0 -- -- 88
2017-12-01 08:00:00 -1.1 20 Oeste 27 Oeste 0 -- -- 86
2017-12-01 07:00:00 -1.4 14 Oeste 27 Oeste 0 -- -- 88
2017-12-01 06:00:00 -1.1 16 Oeste 28 Oeste 0 -- -- 90
2017-12-01 05:00:00 -2.2 11 Sudoeste 21 Oeste 0 -- -- 88
2017-12-01 04:00:00 -1 12 Sudoeste 18 Sudoeste 0 -- -- 86
2017-12-01 03:00:00 -0.7 10 Oeste 17 Sudoeste 0 -- -- 85
2017-12-01 02:00:00 -1.4 6 Sudoeste 10 Sudoeste 0 -- -- 85
2017-12-01 01:00:00 -0.6 5 Sudoeste 11 Sudoeste 0 -- -- 82
2017-12-01 00:00:00 -0.6 5 Sur 9 Sur 0 -- -- 82
2017-11-30 23:00:00 -0.8 5 Sur 9 Sudoeste 0 -- -- 82
2017-11-30 22:00:00 -0.5 5 Sur 7 Sudoeste 0 -- -- 81
2017-11-30 21:00:00 -0.1 5 Sudoeste 7 Sudoeste 0 -- -- 80
2017-11-30 20:00:00 0.4 3 Sudoeste 7 Oeste 0 -- -- 77
2017-11-30 19:00:00 1.8 4 Sudoeste 5 Sudoeste 0 -- -- 72
2017-11-30 18:00:00 4.8 2 Oeste 6 Noroeste 0 -- -- 60
2017-11-30 17:00:00 6.3 4 Noroeste 15 Noroeste 0 -- -- 54
2017-11-30 16:00:00 6.2 9 Noroeste 17 Noroeste 0 -- -- 57
2017-11-30 15:00:00 5.4 3 Este 12 Nordeste 0 -- -- 60
2017-11-30 14:00:00 4.7 4 Norte 10 Norte 0 -- -- 66
2017-11-30 13:00:00 3.5 4 Nordeste 12 Este 0 -- -- 71
2017-11-30 12:00:00 2.5 6 Norte 12 Nordeste 0 -- -- 80
2017-11-30 11:00:00 1.2 4 Nordeste 9 Noroeste 0 -- -- 86
2017-11-30 10:00:00 -0.7 0 Calma 8 Norte 0 -- -- 95
2017-11-30 09:00:00 -3.2 0 Calma -- -- 0 -- -- 94
2017-11-30 08:00:00 -2.9 0 Calma 8 Norte 0 -- -- 93
2017-11-30 07:00:00 -2 9 Norte 11 Nordeste 0 -- -- 93
2017-11-30 06:00:00 -2 8 Nordeste 11 Nordeste 0 -- -- 93
2017-11-30 05:00:00 -2.2 6 Norte 9 Norte 0 -- -- 94
2017-11-30 04:00:00 -1.6 6 Nordeste 9 Nordeste 0 -- -- 93
2017-11-30 03:00:00 -1.4 7 Nordeste 9 Nordeste 0 -- -- 92
2017-11-30 02:00:00 0.1 4 Nordeste 13 Nordeste 0 -- -- 90
2017-11-30 01:00:00 -0.1 7 Nordeste 12 Nordeste 0 -- -- 90
2017-11-30 00:00:00 1.6 7 Nordeste 18 Este 0 -- -- 86
2017-11-29 23:00:00 1.8 16 Este 23 Este 0 -- -- 85
2017-11-29 22:00:00 1.3 10 Nordeste 14 Norte 0 -- -- 87
2017-11-29 21:00:00 1.2 8 Nordeste 12 Nordeste 0 -- -- 91
2017-11-29 20:00:00 1.6 6 Nordeste 11 Nordeste 0 -- -- 89
2017-11-29 19:00:00 2.6 8 Nordeste 9 Nordeste 0 -- -- 89
2017-11-29 18:00:00 4.6 5 Nordeste 13 Nordeste 0 -- -- 81
2017-11-29 17:00:00 6.1 10 Nordeste 15 Este 0 -- -- 74
2017-11-29 16:00:00 5.8 10 Nordeste 18 Nordeste 0 -- -- 76
2017-11-29 15:00:00 5.1 10 Nordeste 15 Nordeste 0 -- -- 81
2017-11-29 14:00:00 3.9 8 Nordeste 12 Nordeste 0 -- -- 98
2017-11-29 13:00:00 2.6 6 Nordeste 10 Nordeste 0 -- -- 99
2017-11-29 12:00:00 1 3 Norte 6 Norte 0 -- -- 99
2017-11-29 11:00:00 -0.5 0 Calma -- -- 0.2 -- -- 99
2017-11-29 10:00:00 -1.9 0 Calma -- -- 0 -- -- 99
2017-11-29 09:00:00 -1.9 0 Calma -- -- 0 -- -- 99
2017-11-29 08:00:00 -1.8 0 Calma -- -- 0 -- -- 99
2017-11-29 07:00:00 -1.3 0 Calma -- -- 0 -- -- 98
2017-11-29 06:00:00 -1.2 0 Calma -- -- 0 -- -- 98
2017-11-29 05:00:00 -0.8 0 Calma -- -- 0 -- -- 98
2017-11-29 04:00:00 -0.7 0 Calma -- -- 0 -- -- 98
2017-11-29 03:00:00 -1.6 0 Calma -- -- 0 -- -- 98
2017-11-29 02:00:00 -1.2 0 Calma 10 Norte 0 -- -- 97
2017-11-29 01:00:00 -0.2 7 Norte 11 Noroeste 0 -- -- 96
2017-11-29 00:00:00 2.3 0 Calma 13 Noroeste 0 -- -- 97
2017-11-28 23:00:00 4.1 11 Noroeste 14 Noroeste 0 -- -- 96
2017-11-28 22:00:00 4.1 8 Noroeste 16 Norte 0 -- -- 96
2017-11-28 21:00:00 3 0 Calma 9 Norte 0 -- -- 91
2017-11-28 20:00:00 3.8 2 Noroeste 5 Norte 0 -- -- 90
2017-11-28 19:00:00 4.6 4 Nordeste 9 Norte 0 -- -- 86
2017-11-28 18:00:00 7.4 2 Sudoeste 9 Oeste 0 -- -- 83
2017-11-28 17:00:00 9 7 Oeste 12 Sudoeste 0 -- -- 78
2017-11-28 16:00:00 9.6 2 Noroeste 7 Sudoeste 0 -- -- 75
2017-11-28 15:00:00 8.3 2 Norte 9 Nordeste 0 -- -- 78
2017-11-28 14:00:00 8.2 6 Norte 21 Oeste 0 -- -- 75
2017-11-28 13:00:00 9.1 13 Oeste 22 Sudoeste 0 -- -- 71
2017-11-28 12:00:00 7.5 9 Sudoeste 17 Oeste 0 -- -- 76
2017-11-28 11:00:00 4.5 6 Sudoeste 13 Sudoeste 0 -- -- 86
2017-11-28 10:00:00 2.8 10 Sudoeste 15 Sudoeste 0 -- -- 83
2017-11-28 09:00:00 1.1 9 Sudoeste 13 Sudoeste 0 -- -- 85
2017-11-28 08:00:00 1.1 5 Sudoeste 11 Sudoeste 0 -- -- 84
2017-11-28 07:00:00 1.5 5 Sudoeste 12 Sudoeste 0 -- -- 84
2017-11-28 06:00:00 1.5 5 Sudoeste 10 Sudoeste 0 -- -- 86
2017-11-28 05:00:00 1.9 5 Sudoeste 8 Sudoeste 0 -- -- 84
2017-11-28 04:00:00 2 5 Sudoeste 10 Sudoeste 0 -- -- 88
2017-11-28 03:00:00 1.5 5 Sudoeste 10 Sudoeste 0 -- -- 88
2017-11-28 02:00:00 1.5 8 Sudoeste 14 Sudoeste 0 -- -- 87
2017-11-28 01:00:00 1 9 Sudoeste 13 Sudoeste 0 -- -- 89
2017-11-28 00:00:00 1.2 5 Sudoeste 8 Sudoeste 0 -- -- 88
2017-11-27 23:00:00 1.7 5 Sudoeste 7 Sudoeste 0 -- -- 86
2017-11-27 22:00:00 2.2 4 Sur 6 Sudoeste 0 -- -- 86
2017-11-27 21:00:00 2.2 3 Sur 8 Sur 0 -- -- 91
2017-11-27 20:00:00 2.3 0 Calma -- -- 0 -- -- 89
2017-11-27 19:00:00 2.8 0 Calma 5 Norte 0 -- -- 88
2017-11-27 18:00:00 4.4 4 Nordeste 8 Nordeste 0 -- -- 83
2017-11-27 17:00:00 6 5 Nordeste 9 Nordeste 0 -- -- 78
2017-11-27 16:00:00 6.6 7 Nordeste 10 Nordeste 0 -- -- 76
2017-11-27 15:00:00 5.8 2 Norte 9 Norte 0 -- -- 85
2017-11-27 14:00:00 3.5 4 Norte 10 Nordeste 0 -- -- 99
2017-11-27 13:00:00 0.1 0 Calma 5 Norte 0 -- -- 99
2017-11-27 12:00:00 -1.4 3 Norte 10 Norte 0 -- -- 97
2017-11-27 11:00:00 -1 8 Norte 11 Nordeste 0 -- -- 96
2017-11-27 10:00:00 -1.9 0 Calma 4 Sur 0 -- -- 97
2017-11-27 09:00:00 -3.4 0 Calma 2 Norte 0 -- -- 97
2017-11-27 08:00:00 -3.6 0 Calma -- -- 0 -- -- 96
2017-11-27 07:00:00 -2.8 0 Calma -- -- 0 -- -- 96
2017-11-27 06:00:00 -2.5 0 Calma -- -- 0 -- -- 95
2017-11-27 05:00:00 -2.2 0 Calma -- -- 0 -- -- 95
2017-11-27 04:00:00 -1.9 0 Calma -- -- 0 -- -- 94
2017-11-27 03:00:00 -1.2 0 Calma -- -- 0 -- -- 94
2017-11-27 02:00:00 -0.9 0 Calma 5 Nordeste 0 -- -- 93
2017-11-27 01:00:00 -0.1 6 Este 9 Este 0 -- -- 90
2017-11-27 00:00:00 0.7 2 Este 13 Este 0 -- -- 91
2017-11-26 23:00:00 1.1 12 Este 14 Este 0 -- -- 89
2017-11-26 22:00:00 1.2 10 Este 14 Nordeste 0 -- -- 89
2017-11-26 21:00:00 2 10 Nordeste 15 Nordeste 0 -- -- 86
2017-11-26 20:00:00 2.7 14 Nordeste 16 Nordeste 0 -- -- 83
2017-11-26 19:00:00 3.1 8 Nordeste 14 Nordeste 0 -- -- 81
2017-11-26 18:00:00 5 11 Nordeste 19 Este 0 -- -- 75
2017-11-26 17:00:00 7.6 14 Nordeste 20 Este 0 -- -- 62
2017-11-26 16:00:00 7.7 9 Nordeste 19 Nordeste 0 -- -- 67
2017-11-26 15:00:00 6.9 10 Este 27 Nordeste 0 -- -- 68
2017-11-26 14:00:00 6.5 19 Nordeste 35 Este 0 -- -- 73
2017-11-26 13:00:00 5.8 21 Este 32 Este 0 -- -- 78
2017-11-26 12:00:00 4.6 23 Nordeste 32 Nordeste 0 -- -- 84
2017-11-26 11:00:00 2.8 16 Nordeste 22 Nordeste 0 -- -- 88
2017-11-26 10:00:00 1.1 8 Este 10 Este 0 -- -- 95
2017-11-26 09:00:00 -1.2 0 Calma -- -- 0 -- -- 95
2017-11-26 08:00:00 -1.6 0 Calma -- -- 0 -- -- 94
2017-11-26 07:00:00 -0.7 0 Calma 10 Nordeste 0 -- -- 93
2017-11-26 06:00:00 0 9 Nordeste 10 Nordeste 0 -- -- 93
2017-11-26 05:00:00 -0.1 8 Nordeste 9 Nordeste 0 -- -- 92
2017-11-26 04:00:00 0.2 6 Nordeste 10 Nordeste 0 -- -- 92
2017-11-26 03:00:00 0.4 5 Nordeste 10 Nordeste 0 -- -- 92
2017-11-26 02:00:00 1 5 Este 13 Este 0 -- -- 87
2017-11-26 01:00:00 2.6 11 Este 21 Este 0 -- -- 85
2017-11-26 00:00:00 3 15 Este 30 Nordeste 0 -- -- 87
2017-11-25 23:00:00 3.4 14 Este 27 Nordeste 0 -- -- 89
2017-11-25 22:00:00 4.2 18 Nordeste 25 Nordeste 0 -- -- 86
2017-11-25 21:00:00 5.5 16 Este 24 Este 0 -- -- 83
2017-11-25 20:00:00 5.7 11 Este 19 Este 0 -- -- 90
2017-11-25 19:00:00 6.7 6 Nordeste 17 Nordeste 0 -- -- 86
2017-11-25 18:00:00 8.1 11 Nordeste 24 Nordeste 0 -- -- 82
2017-11-25 17:00:00 8.8 16 Nordeste 25 Nordeste 0 -- -- 81
2017-11-25 16:00:00 9.1 19 Nordeste 25 Nordeste 0 -- -- 82
2017-11-25 15:00:00 8.7 21 Nordeste 30 Nordeste 0 -- -- 85
2017-11-25 14:00:00 9.4 19 Nordeste 30 Este 0 -- -- 86
2017-11-25 13:00:00 9.9 21 Nordeste 29 Este 0 -- -- 86
2017-11-25 12:00:00 9.3 19 Nordeste 25 Nordeste 0 -- -- 92
2017-11-25 11:00:00 9 19 Norte 25 Norte 0 -- -- 90
2017-11-25 10:00:00 8.9 12 Norte 19 Norte 0 -- -- 91
2017-11-25 09:00:00 9 12 Norte 21 Norte 0.2 -- -- 92
2017-11-25 08:00:00 9.7 3 Norte 12 Norte 0 -- -- 94
2017-11-25 07:00:00 10 10 Norte 17 Norte 0 -- -- 94
2017-11-25 06:00:00 10 14 Oeste 33 Oeste 0 -- -- 94
2017-11-25 05:00:00 9.9 24 Sudoeste 41 Sudoeste 1.8 -- -- 92
2017-11-25 04:00:00 10 28 Sudoeste 37 Sudoeste 1 -- -- 89
2017-11-25 03:00:00 10 25 Sudoeste 36 Sudoeste 0 -- -- 89
2017-11-25 02:00:00 9.9 20 Sudoeste 32 Sudoeste 0 -- -- 84
2017-11-25 01:00:00 10.5 21 Sudoeste 32 Sudoeste 0 -- -- 86
2017-11-25 00:00:00 10.7 7 Sudoeste 14 Sudoeste 0 -- -- 90
2017-11-24 23:00:00 10.5 9 Sudoeste 15 Oeste 0 -- -- 93
2017-11-24 22:00:00 10.8 10 Sudoeste 27 Sudoeste 0 -- -- 91
2017-11-24 21:00:00 10.7 17 Sudoeste 26 Sudoeste 0 -- -- 92
2017-11-24 20:00:00 10.7 12 Sudoeste 28 Sudoeste 0 -- -- 93
2017-11-24 19:00:00 10.8 21 Sudoeste 29 Sudoeste 0.6 -- -- 93
2017-11-24 18:00:00 11.5 12 Sudoeste 28 Sudoeste 0.2 -- -- 93
2017-11-24 17:00:00 12.1 16 Sudoeste 39 Sudoeste 0.4 -- -- 94
2017-11-24 16:00:00 13.4 19 Sudoeste 42 Sudoeste 1.6 -- -- 85
2017-11-24 15:00:00 14.2 14 Oeste 36 Oeste 0 -- -- 79
2017-11-24 14:00:00 13.9 20 Sudoeste 32 Sudoeste 0 -- -- 78
2017-11-24 13:00:00 13.4 22 Sudoeste 40 Sudoeste 0 -- -- 82
2017-11-24 12:00:00 12.9 23 Sudoeste 33 Sudoeste 0 -- -- 88
2017-11-24 11:00:00 11 18 Sudoeste 34 Sudoeste 0 -- -- 92
2017-11-24 10:00:00 10.7 17 Sudoeste 28 Sudoeste 0 -- -- 90
2017-11-24 09:00:00 10.3 21 Sudoeste 30 Sudoeste 0 -- -- 90
2017-11-24 08:00:00 10 14 Sudoeste 22 Sudoeste 0 -- -- 89
2017-11-24 07:00:00 9.3 4 Sudoeste 21 Sudoeste 0 -- -- 85
2017-11-24 06:00:00 9.2 8 Sudoeste 28 Sur 0 -- -- 87
2017-11-24 05:00:00 9.5 21 Sur 29 Sur 0 -- -- 88
2017-11-24 04:00:00 9.5 21 Sur 49 Sudoeste 0 -- -- 88
2017-11-24 03:00:00 9.6 26 Sudoeste 47 Sudoeste 0 -- -- 86
2017-11-24 02:00:00 9.5 18 Sur 26 Sur 0 -- -- 84
2017-11-24 01:00:00 9.2 14 Sudoeste 33 Sur 0.2 -- -- 85
2017-11-24 00:00:00 9.4 25 Sur 50 Sudoeste 0.8 -- -- 86
2017-11-23 23:00:00 11.1 37 Sudoeste 54 Sudoeste 0 -- -- 71
2017-11-23 22:00:00 13.8 34 Sudoeste 45 Sudoeste 0 -- -- 44
2017-11-23 21:00:00 13 20 Sudoeste 31 Sudoeste 0 -- -- 45
2017-11-23 20:00:00 13.5 23 Sudoeste 33 Sudoeste 0 -- -- 44
2017-11-23 19:00:00 13.6 24 Sudoeste 36 Sudoeste 0 -- -- 43
2017-11-23 18:00:00 14.3 28 Sudoeste 42 Sudoeste 0 -- -- 40
2017-11-23 17:00:00 15.4 25 Sudoeste 46 Sudoeste 0 -- -- 40
2017-11-23 16:00:00 16.4 27 Sudoeste 42 Sudoeste 0 -- -- 41
2017-11-23 15:00:00 16.6 27 Sudoeste 49 Sudoeste 0 -- -- 44
2017-11-23 14:00:00 16.2 30 Sudoeste 49 Sudoeste 0 -- -- 50
2017-11-23 13:00:00 16.6 31 Sudoeste 42 Sudoeste 0 -- -- 53
2017-11-23 12:00:00 13.8 21 Sudoeste 33 Sudoeste 0 -- -- 63
2017-11-23 11:00:00 12.4 21 Sudoeste 35 Sudoeste 0 -- -- 65
2017-11-23 10:00:00 11.3 23 Sudoeste 35 Sudoeste 0 -- -- 66
2017-11-23 09:00:00 10.3 24 Sudoeste 35 Sudoeste 0 -- -- 67
2017-11-23 08:00:00 10.1 24 Sur 36 Sudoeste 0 -- -- 67
2017-11-23 07:00:00 10.4 22 Sudoeste 32 Sur 0 -- -- 59
2017-11-23 06:00:00 10.4 21 Sur 29 Sur 0 -- -- 57
2017-11-23 05:00:00 10.8 22 Sudoeste 44 Sudoeste 0 -- -- 54
2017-11-23 04:00:00 11 28 Sur 42 Sur 0 -- -- 53
2017-11-23 03:00:00 11.8 31 Sur 44 Sur 0 -- -- 50
2017-11-23 02:00:00 12.5 33 Sur 53 Sur 0 -- -- 46
2017-11-23 01:00:00 12.8 33 Sur 49 Sudoeste 0 -- -- 43
2017-11-23 00:00:00 12.6 28 Sudoeste 39 Sudoeste 0 -- -- 42
2017-11-22 23:00:00 12.3 29 Sudoeste 39 Sudoeste 0 -- -- 43
2017-11-22 22:00:00 12.3 30 Sudoeste 40 Sudoeste 0 -- -- 43
2017-11-22 21:00:00 12.2 24 Sur 40 Sudoeste 0 -- -- 42
2017-11-22 20:00:00 13.1 33 Sudoeste 43 Sudoeste 0 -- -- 39
2017-11-22 19:00:00 12.8 31 Sur 42 Sur 0 -- -- 41
2017-11-22 18:00:00 13.7 36 Sudoeste 46 Sudoeste 0 -- -- 39
2017-11-22 17:00:00 15.2 32 Sudoeste 42 Sudoeste 0 -- -- 34
2017-11-22 16:00:00 16.6 28 Sudoeste 45 Sudoeste 0 -- -- 31
2017-11-22 15:00:00 17.5 28 Sudoeste 43 Sudoeste 0 -- -- 30
2017-11-22 14:00:00 18.1 28 Sudoeste 44 Sudoeste 0 -- -- 30
2017-11-22 13:00:00 17.5 26 Sudoeste 35 Sudoeste 0 -- -- 32
2017-11-22 12:00:00 15.6 13 Sudoeste 21 Sudoeste 0 -- -- 37
2017-11-22 11:00:00 12.6 6 Sudeste 12 Sudeste 0 -- -- 41
2017-11-22 10:00:00 8.1 3 Oeste 6 Sudoeste 0 -- -- 54
2017-11-22 09:00:00 6.2 0 Calma 15 Sur 0 -- -- 54
2017-11-22 08:00:00 6.3 6 Norte 15 Norte 0 -- -- 53
2017-11-22 07:00:00 7 4 Sudoeste 14 Sudoeste 0 -- -- 52
2017-11-22 06:00:00 7.4 3 Oeste 15 Sudoeste 0 -- -- 50
2017-11-22 05:00:00 7.6 8 Sur 16 Sudoeste 0 -- -- 49
2017-11-22 04:00:00 8.5 9 Sudoeste 18 Sudoeste 0 -- -- 46
2017-11-22 03:00:00 6.6 4 Oeste 15 Sur 0 -- -- 52
2017-11-22 02:00:00 6.8 8 Sur 18 Sudoeste 0 -- -- 55
2017-11-22 01:00:00 5.4 7 Sudoeste 10 Sur 0 -- -- 58
2017-11-22 00:00:00 5.8 6 Sudoeste 10 Sudoeste 0 -- -- 55
2017-11-21 23:00:00 4 0 Calma 5 Sudoeste 0 -- -- 62
2017-11-21 22:00:00 5.1 0 Calma 7 Sudeste 0 -- -- 59
2017-11-21 21:00:00 5.3 0 Calma 6 Sudeste 0 -- -- 56
2017-11-21 20:00:00 6.3 2 Sur 6 Sudoeste 0 -- -- 55
2017-11-21 19:00:00 8.2 3 Sudeste 9 Este 0 -- -- 52
2017-11-21 18:00:00 10.9 10 Nordeste 14 Nordeste 0 -- -- 46
2017-11-21 17:00:00 15.1 13 Norte 15 Norte 0 -- -- 38
2017-11-21 16:00:00 17.1 5 Oeste 12 Este 0 -- -- 32
2017-11-21 15:00:00 16.1 7 Nordeste 19 Norte 0 -- -- 35
2017-11-21 14:00:00 15.5 3 Este 13 Sudoeste 0 -- -- 35
2017-11-21 13:00:00 14 3 Este 8 Este 0 -- -- 42
2017-11-21 12:00:00 11.4 3 Sudeste 7 Este 0 -- -- 50
2017-11-21 11:00:00 8.8 4 Sudeste 8 Sudeste 0 -- -- 54
2017-11-21 10:00:00 5.3 4 Sudeste 8 Sudeste 0 -- -- 66
2017-11-21 09:00:00 1.4 0 Calma 2 Noroeste 0 -- -- 75
2017-11-21 08:00:00 -0.1 0 Calma -- -- 0 -- -- 77
2017-11-21 07:00:00 0.5 0 Calma -- -- 0 -- -- 76
2017-11-21 06:00:00 2.7 0 Calma 10 Sudoeste 0 -- -- 71
2017-11-21 05:00:00 5.1 9 Sudoeste 12 Sudoeste 0 -- -- 62
2017-11-21 04:00:00 5.8 6 Sudoeste 9 Sudoeste 0 -- -- 59
2017-11-21 03:00:00 6 6 Sudoeste 10 Sudoeste 0 -- -- 57
2017-11-21 02:00:00 5.3 7 Sudoeste 9 Sudoeste 0 -- -- 61
2017-11-21 01:00:00 5 4 Sudoeste 10 Sudoeste 0 -- -- 62
2017-11-21 00:00:00 5.3 0 Calma -- -- 0 -- -- 54
2017-11-20 23:00:00 5.4 0 Calma -- -- 0 -- -- 54
2017-11-20 22:00:00 5.6 0 Calma 5 Sur 0 -- -- 55
2017-11-20 21:00:00 4.7 0 Calma 3 Sur 0 -- -- 60
2017-11-20 20:00:00 5.2 0 Calma 3 Sudoeste 0 -- -- 59
2017-11-20 19:00:00 7.9 0 Calma 8 Este 0 -- -- 50
2017-11-20 18:00:00 11.5 6 Este 10 Este 0 -- -- 44
2017-11-20 17:00:00 14.2 5 Este 12 Sudeste 0 -- -- 39
2017-11-20 16:00:00 14.6 8 Sudeste 13 Sudeste 0 -- -- 39
2017-11-20 15:00:00 13.7 6 Nordeste 11 Nordeste 0 -- -- 43
2017-11-20 14:00:00 12.8 6 Norte 9 Norte 0 -- -- 47
2017-11-20 13:00:00 11.2 5 Norte 9 Norte 0 -- -- 54
2017-11-20 12:00:00 8.7 6 Norte 10 Norte 0 -- -- 62
2017-11-20 11:00:00 7.7 2 Norte 4 Noroeste 0 -- -- 64
2017-11-20 10:00:00 3.9 0 Calma -- -- 0 -- -- 76
2017-11-20 09:00:00 -1 0 Calma -- -- 0 -- -- 88
2017-11-20 08:00:00 -2.1 0 Calma -- -- 0 -- -- 86
2017-11-20 07:00:00 -1.5 0 Calma -- -- 0 -- -- 85
2017-11-20 06:00:00 -1.5 0 Calma -- -- 0 -- -- 83
2017-11-20 05:00:00 -0.8 0 Calma -- -- 0 -- -- 84
2017-11-20 04:00:00 0 0 Calma -- -- 0 -- -- 79
2017-11-20 03:00:00 1.1 0 Calma -- -- 0 -- -- 78
2017-11-20 02:00:00 1.4 0 Calma -- -- 0 -- -- 78
2017-11-20 01:00:00 1.4 0 Calma -- -- 0 -- -- 76
2017-11-20 00:00:00 1.6 0 Calma -- -- 0 -- -- 77
2017-11-19 23:00:00 2.4 0 Calma 3 Sur 0 -- -- 79
2017-11-19 22:00:00 2.6 0 Calma 4 Sudoeste 0 -- -- 79
2017-11-19 21:00:00 4 3 Sudoeste 5 Sudoeste 0 -- -- 71
2017-11-19 20:00:00 3.7 0 Calma 2 Sudoeste 0 -- -- 69
2017-11-19 19:00:00 6.2 0 Calma 6 Norte 0 -- -- 64
2017-11-19 18:00:00 9.3 5 Norte 10 Norte 0 -- -- 52
2017-11-19 17:00:00 12 8 Nordeste 11 Nordeste 0 -- -- 50
2017-11-19 16:00:00 11.9 6 Nordeste 10 Nordeste 0 -- -- 51
2017-11-19 15:00:00 10.9 4 Norte 10 Nordeste 0 -- -- 57
2017-11-19 14:00:00 9.2 7 Norte 14 Nordeste 0 -- -- 67
2017-11-19 13:00:00 7.1 8 Norte 14 Nordeste 0 -- -- 76
2017-11-19 12:00:00 5.1 8 Norte 10 Norte 0 -- -- 92
2017-11-19 11:00:00 2.6 0 Calma -- -- 0 -- -- 97
2017-11-19 10:00:00 0.8 0 Calma -- -- 0 -- -- 96
2017-11-19 09:00:00 -2.5 0 Calma -- -- 0 -- -- 96
2017-11-19 08:00:00 -2.2 0 Calma -- -- 0 -- -- 93
2017-11-19 07:00:00 -1.3 0 Calma -- -- 0 -- -- 93
2017-11-19 06:00:00 -1.7 0 Calma -- -- 0 -- -- 92
2017-11-19 05:00:00 -1 0 Calma -- -- 0 -- -- 90
2017-11-19 04:00:00 -0.4 0 Calma -- -- 0 -- -- 89
2017-11-19 03:00:00 0.3 0 Calma -- -- 0 -- -- 87
2017-11-19 02:00:00 0.6 0 Calma -- -- 0 -- -- 81
2017-11-19 01:00:00 1.3 0 Calma 8 Nordeste 0 -- -- 83
2017-11-19 00:00:00 1.6 7 Este 8 Este 0 -- -- 78
2017-11-18 23:00:00 2.2 0 Calma 3 Este 0 -- -- 72
2017-11-18 22:00:00 3.4 3 Este 13 Nordeste 0 -- -- 70
2017-11-18 21:00:00 5.9 4 Este 13 Nordeste 0 -- -- 60
2017-11-18 20:00:00 7.4 10 Nordeste 12 Nordeste 0 -- -- 62
2017-11-18 19:00:00 8.5 5 Nordeste 9 Nordeste 0 -- -- 55
2017-11-18 18:00:00 11.2 8 Nordeste 13 Nordeste 0 -- -- 50
2017-11-18 17:00:00 14.7 11 Nordeste 15 Nordeste 0 -- -- 43
2017-11-18 16:00:00 14.6 11 Nordeste 22 Nordeste 0 -- -- 45
2017-11-18 15:00:00 13.8 18 Nordeste 24 Nordeste 0 -- -- 48
2017-11-18 14:00:00 11.9 13 Nordeste 21 Nordeste 0 -- -- 52
2017-11-18 13:00:00 10.2 15 Nordeste 19 Nordeste 0 -- -- 56
2017-11-18 12:00:00 8.3 12 Nordeste 16 Norte 0 -- -- 63
2017-11-18 11:00:00 6.6 10 Nordeste 13 Nordeste 0 -- -- 69
2017-11-18 10:00:00 4.6 4 Norte 10 Norte 0 -- -- 76
2017-11-18 09:00:00 1.5 10 Norte 12 Norte 0 -- -- 85
2017-11-18 08:00:00 0.9 0 Calma 5 Norte 0 -- -- 80
2017-11-18 07:00:00 1.5 0 Calma 5 Norte 0 -- -- 80
2017-11-18 06:00:00 1.5 7 Norte 9 Norte 0 -- -- 81
2017-11-18 05:00:00 2.1 5 Norte 8 Norte 0 -- -- 77
2017-11-18 04:00:00 2.8 0 Calma 10 Norte 0 -- -- 75
2017-11-18 03:00:00 3.6 0 Calma -- -- 0 -- -- 74
2017-11-18 02:00:00 3.3 0 Calma 3 Sudoeste 0 -- -- 75
2017-11-18 01:00:00 4.3 0 Calma 3 Sudoeste 0 -- -- 72
2017-11-18 00:00:00 4.9 0 Calma 3 Sur 0 -- -- 68
2017-11-17 23:00:00 5.6 0 Calma 4 Sudoeste 0 -- -- 67
2017-11-17 22:00:00 5.2 0 Calma 3 Sudoeste 0 -- -- 69
2017-11-17 21:00:00 6.4 2 Sudoeste 5 Sudoeste 0 -- -- 63
2017-11-17 20:00:00 8.6 4 Sudoeste 6 Norte 0 -- -- 60
2017-11-17 19:00:00 10.1 3 Noroeste 12 Norte 0 -- -- 56
2017-11-17 18:00:00 12.5 5 Norte 9 Nordeste 0 -- -- 50
2017-11-17 17:00:00 14.3 7 Norte 12 Nordeste 0 -- -- 43
2017-11-17 16:00:00 14.2 7 Nordeste 12 Este 0 -- -- 41
2017-11-17 15:00:00 13.5 9 Nordeste 12 Nordeste 0 -- -- 41
2017-11-17 14:00:00 12.7 7 Nordeste 15 Nordeste 0 -- -- 44
2017-11-17 13:00:00 11.3 6 Nordeste 12 Norte 0 -- -- 50
2017-11-17 12:00:00 9.7 5 Norte 9 Norte 0 -- -- 54
2017-11-17 11:00:00 7.7 6 Norte 10 Norte 0 -- -- 64
2017-11-17 10:00:00 5.5 0 Calma 4 Norte 0 -- -- 72
2017-11-17 09:00:00 1.2 0 Calma -- -- 0 -- -- 83
2017-11-17 08:00:00 1.4 0 Calma -- -- 0 -- -- 77
2017-11-17 07:00:00 1.3 0 Calma -- -- 0 -- -- 77
2017-11-17 06:00:00 1.4 0 Calma -- -- 0 -- -- 77
2017-11-17 05:00:00 2 0 Calma -- -- 0 -- -- 75
2017-11-17 04:00:00 2.6 2 Sudoeste 5 Sudoeste 0 -- -- 72
2017-11-17 03:00:00 3.6 0 Calma 4 Norte 0 -- -- 71
2017-11-17 02:00:00 3 0 Calma -- -- 0 -- -- 72
2017-11-17 01:00:00 3.6 0 Calma 4 Sudoeste 0 -- -- 71
2017-11-17 00:00:00 3.4 0 Calma 4 Sudoeste 0 -- -- 67
2017-11-16 23:00:00 4.3 2 Sudoeste 4 Sudoeste 0 -- -- 67
2017-11-16 22:00:00 5.4 4 Sudoeste 5 Sudoeste 0 -- -- 63
2017-11-16 21:00:00 4.9 0 Calma 4 Sudoeste 0 -- -- 64
2017-11-16 20:00:00 6.2 0 Calma 2 Sudoeste 0 -- -- 59
2017-11-16 19:00:00 6.8 3 Norte 8 Nordeste 0 -- -- 57
2017-11-16 18:00:00 10.9 6 Nordeste 10 Nordeste 0 -- -- 46
2017-11-16 17:00:00 13.6 8 Nordeste 11 Nordeste 0 -- -- 39
2017-11-16 16:00:00 13.7 6 Nordeste 12 Norte 0 -- -- 39
2017-11-16 15:00:00 13 7 Nordeste 12 Nordeste 0 -- -- 42
2017-11-16 14:00:00 12 8 Nordeste 13 Nordeste 0 -- -- 41
2017-11-16 13:00:00 10.6 6 Nordeste 12 Nordeste 0 -- -- 50
2017-11-16 12:00:00 9.7 7 Nordeste 11 Norte 0 -- -- 54
2017-11-16 11:00:00 7.4 3 Norte 5 Norte 0 -- -- 59
2017-11-16 10:00:00 5 0 Calma 0 Calma 0 -- -- 72
2017-11-16 09:00:00 -0.1 0 Calma -- -- 0 -- -- 86
2017-11-16 08:00:00 -1.2 0 Calma -- -- 0 -- -- 83
2017-11-16 07:00:00 -0.7 0 Calma -- -- 0 -- -- 82
2017-11-16 06:00:00 -0.4 0 Calma -- -- 0 -- -- 81
2017-11-16 05:00:00 0.8 0 Calma -- -- 0 -- -- 75
2017-11-16 04:00:00 1.1 0 Calma -- -- 0 -- -- 73
2017-11-16 03:00:00 1.1 0 Calma -- -- 0 -- -- 72
2017-11-16 02:00:00 1.1 0 Calma -- -- 0 -- -- 71
2017-11-16 01:00:00 1.7 0 Calma -- -- 0 -- -- 73
2017-11-16 00:00:00 1.4 0 Calma -- -- 0 -- -- 73
2017-11-15 23:00:00 2.2 0 Calma -- -- 0 -- -- 70
2017-11-15 22:00:00 3.1 0 Calma 5 Sudoeste 0 -- -- 67
2017-11-15 21:00:00 3 0 Calma 3 Sur 0 -- -- 68
2017-11-15 20:00:00 5 0 Calma 3 Sudoeste 0 -- -- 63
2017-11-15 19:00:00 6.9 0 Calma 4 Noroeste 0 -- -- 54
2017-11-15 18:00:00 10.9 3 Noroeste 9 Noroeste 0 -- -- 45
2017-11-15 17:00:00 12.3 6 Noroeste 10 Noroeste 0 -- -- 41
2017-11-15 16:00:00 12.6 4 Noroeste 12 Norte 0 -- -- 42
2017-11-15 15:00:00 11.4 8 Norte 14 Norte 0 -- -- 44
2017-11-15 14:00:00 10.6 6 Norte 12 Noroeste 0 -- -- 47
2017-11-15 13:00:00 8.9 4 Noroeste 12 Noroeste 0 -- -- 52
2017-11-15 12:00:00 7.2 6 Noroeste 10 Noroeste 0 -- -- 56
2017-11-15 11:00:00 4.9 3 Noroeste 5 Sudoeste 0 -- -- 62
2017-11-15 10:00:00 2.4 0 Calma 4 Noroeste 0 -- -- 71
2017-11-15 09:00:00 -1 0 Calma -- -- 0 -- -- 84
2017-11-15 08:00:00 -1.7 0 Calma -- -- 0 -- -- 81
2017-11-15 07:00:00 -1.9 0 Calma -- -- 0 -- -- 84
2017-11-15 06:00:00 -1.4 0 Calma 4 Sudoeste 0 -- -- 82
2017-11-15 05:00:00 -1 0 Calma 8 Norte 0 -- -- 82
2017-11-15 04:00:00 -0.6 0 Calma 9 Nordeste 0 -- -- 79
2017-11-15 03:00:00 -0.1 8 Nordeste 12 Norte 0 -- -- 78
2017-11-15 02:00:00 0.1 6 Norte 10 Nordeste 0 -- -- 79
2017-11-15 01:00:00 0.5 9 Nordeste 12 Nordeste 0 -- -- 78
2017-11-15 00:00:00 1.3 10 Nordeste 14 Norte 0 -- -- 75